This is the latest recevied weather packets stored in our database for station/object N2RDT. If no packets are shown the sender has not sent any weather packets the latest 1 day(s).
| Time | Temp. | Humidity | Pressure | Rain* | Wind** | Luminosity | Snow |
|---|---|---|---|---|---|---|---|
| 1778031183 | 21.67° C | 55% | 1015.3 hPa | 0 mm | - | 0 W/m² | - |
| 1778030879 | 21.11° C | 55% | 1015.2 hPa | 0 mm | - | 0 W/m² | - |
| 1778030274 | 21.67° C | 55% | 1015 hPa | 0 mm | - | 0 W/m² | - |
| 1778029970 | 21.67° C | 54% | 1015.1 hPa | 0 mm | - | 0 W/m² | - |
| 1778029668 | 21.67° C | 54% | 1015.2 hPa | 0 mm | - | 0 W/m² | - |
| 1778029365 | 21.67° C | 54% | 1014.9 hPa | 0 mm | - | 0 W/m² | - |
| 1778028455 | 21.67° C | 54% | 1014.7 hPa | 0 mm | - | 0 W/m² | - |
| 1778028153 | 22.22° C | 53% | 1014.7 hPa | 0 mm | - | 0 W/m² | - |
| 1778027545 | 21.67° C | 54% | 1014.5 hPa | 0 mm | - | 0 W/m² | - |
| 1778027241 | 22.22° C | 53% | 1014.6 hPa | 0 mm | - | 0 W/m² | - |
| 1778026028 | 22.78° C | 51% | 1014.3 hPa | 0 mm | - | 3 W/m² | - |
| 1778024211 | 23.89° C | 47% | 1014.1 hPa | 0 mm | - | 36 W/m² | - |
| 1778022699 | 23.89° C | 45% | 1014.1 hPa | 0 mm | - | 58 W/m² | - |
| 1778020273 | 25.56° C | 41% | 1014.4 hPa | 0 mm | - | 190 W/m² | - |
| 1778019666 | 26.11° C | 40% | 1014.4 hPa | 0 mm | - | 246 W/m² | - |
| 1778019363 | 26.11° C | 40% | 1014.5 hPa | 0 mm | - | 278 W/m² | - |
| 1778019059 | 26.67° C | 40% | 1014.3 hPa | 0 mm | - | 297 W/m² | - |
| 1778017244 | 26.11° C | 41% | 1014.4 hPa | 0 mm | - | 303 W/m² | - |
| 1778016942 | 26.11° C | 41% | 1014.4 hPa | 0 mm | - | 262 W/m² | - |
| 1778016032 | 25.56° C | 40% | 1014.4 hPa | 0 mm | - | 355 W/m² | - |
| 1778014518 | 26.11° C | 39% | 1014.7 hPa | 0 mm | - | 500 W/m² | - |
| 1778013609 | 26.67° C | 37% | 1014.8 hPa | 0 mm | - | 626 W/m² | - |
| 1778010880 | 26.67° C | 39% | 1015 hPa | 0 mm | - | 643 W/m² | - |
| 1778009974 | 26.11° C | 39% | 1015.4 hPa | 0 mm | - | 371 W/m² | - |
* Rain latest hour (hover to see other rain measurements)
** Current wind speed in m/s (hover to see current wind gust speed)